sensor_id;sensor_type;location;lat;lon;timestamp;pressure;altitude;pressure_sealevel;temperature;humidity
39949;BME280;29070;48.102;-1.652;2023-12-20T00:01:33;102413.66;;;8.18;81.77
39949;BME280;29070;48.102;-1.652;2023-12-20T00:06:33;102432.38;;;8.13;81.59
39949;BME280;29070;48.102;-1.652;2023-12-20T00:11:34;102431.56;;;8.03;81.80
39949;BME280;29070;48.102;-1.652;2023-12-20T00:16:34;102429.16;;;7.90;81.55
39949;BME280;29070;48.102;-1.652;2023-12-20T00:21:34;102436.44;;;7.77;81.79
39949;BME280;29070;48.102;-1.652;2023-12-20T00:26:35;102445.22;;;7.66;81.69
39949;BME280;29070;48.102;-1.652;2023-12-20T00:31:35;102442.28;;;7.50;81.45
39949;BME280;29070;48.102;-1.652;2023-12-20T00:36:36;102437.97;;;7.39;81.43
39949;BME280;29070;48.102;-1.652;2023-12-20T00:41:36;102449.59;;;7.25;81.73
39949;BME280;29070;48.102;-1.652;2023-12-20T00:46:37;102460.63;;;7.07;81.62
39949;BME280;29070;48.102;-1.652;2023-12-20T00:51:37;102463.88;;;7.00;81.55
39949;BME280;29070;48.102;-1.652;2023-12-20T00:56:38;102469.59;;;6.94;81.55
39949;BME280;29070;48.102;-1.652;2023-12-20T01:01:38;102458.16;;;6.85;81.50
39949;BME280;29070;48.102;-1.652;2023-12-20T01:06:39;102462.59;;;6.73;81.75
39949;BME280;29070;48.102;-1.652;2023-12-20T01:11:39;102467.25;;;6.70;81.89
39949;BME280;29070;48.102;-1.652;2023-12-20T01:16:39;102474.28;;;6.58;81.73
39949;BME280;29070;48.102;-1.652;2023-12-20T01:21:40;102477.53;;;6.50;82.07
39949;BME280;29070;48.102;-1.652;2023-12-20T01:26:40;102464.81;;;6.57;82.07
39949;BME280;29070;48.102;-1.652;2023-12-20T01:31:41;102484.25;;;6.64;82.34
39949;BME280;29070;48.102;-1.652;2023-12-20T01:36:42;102479.31;;;6.71;82.45
39949;BME280;29070;48.102;-1.652;2023-12-20T01:41:42;102505.38;;;6.82;82.32
39949;BME280;29070;48.102;-1.652;2023-12-20T01:46:43;102508.34;;;6.89;82.77
39949;BME280;29070;48.102;-1.652;2023-12-20T01:51:43;102512.78;;;6.98;82.36
39949;BME280;29070;48.102;-1.652;2023-12-20T01:56:44;102507.75;;;7.06;82.82
39949;BME280;29070;48.102;-1.652;2023-12-20T02:01:44;102485.66;;;7.10;82.34
39949;BME280;29070;48.102;-1.652;2023-12-20T02:06:46;102478.78;;;7.09;82.57
39949;BME280;29070;48.102;-1.652;2023-12-20T02:11:46;102485.91;;;7.07;82.18
39949;BME280;29070;48.102;-1.652;2023-12-20T02:16:48;102489.22;;;7.09;82.38
39949;BME280;29070;48.102;-1.652;2023-12-20T02:21:48;102494.91;;;7.14;82.23
39949;BME280;29070;48.102;-1.652;2023-12-20T02:26:48;102490.38;;;7.16;82.28
39949;BME280;29070;48.102;-1.652;2023-12-20T02:31:49;102499.13;;;7.15;82.33
39949;BME280;29070;48.102;-1.652;2023-12-20T02:36:49;102498.91;;;7.18;82.42
39949;BME280;29070;48.102;-1.652;2023-12-20T02:41:50;102491.63;;;7.22;82.65
39949;BME280;29070;48.102;-1.652;2023-12-20T02:46:50;102484.88;;;7.19;82.32
39949;BME280;29070;48.102;-1.652;2023-12-20T02:51:50;102484.56;;;7.13;82.28
39949;BME280;29070;48.102;-1.652;2023-12-20T02:56:51;102470.50;;;7.04;82.41
39949;BME280;29070;48.102;-1.652;2023-12-20T03:01:51;102480.50;;;6.99;81.93
39949;BME280;29070;48.102;-1.652;2023-12-20T03:06:51;102495.69;;;6.94;81.85
39949;BME280;29070;48.102;-1.652;2023-12-20T03:11:51;102487.81;;;6.84;81.67
39949;BME280;29070;48.102;-1.652;2023-12-20T03:16:52;102493.69;;;6.76;81.68
39949;BME280;29070;48.102;-1.652;2023-12-20T03:21:52;102496.66;;;6.72;81.77
39949;BME280;29070;48.102;-1.652;2023-12-20T03:26:53;102498.22;;;6.63;81.82
39949;BME280;29070;48.102;-1.652;2023-12-20T03:31:54;102497.06;;;6.56;81.84
39949;BME280;29070;48.102;-1.652;2023-12-20T03:36:54;102492.38;;;6.49;81.84
39949;BME280;29070;48.102;-1.652;2023-12-20T03:41:54;102506.84;;;6.42;81.89
39949;BME280;29070;48.102;-1.652;2023-12-20T03:46:55;102501.53;;;6.33;81.82
39949;BME280;29070;48.102;-1.652;2023-12-20T03:51:55;102498.44;;;6.27;82.10
39949;BME280;29070;48.102;-1.652;2023-12-20T03:56:55;102493.63;;;6.23;82.01
39949;BME280;29070;48.102;-1.652;2023-12-20T04:01:56;102487.94;;;6.18;82.05
39949;BME280;29070;48.102;-1.652;2023-12-20T04:06:56;102480.59;;;6.23;82.24
39949;BME280;29070;48.102;-1.652;2023-12-20T04:11:56;102476.06;;;6.25;82.10
39949;BME280;29070;48.102;-1.652;2023-12-20T04:16:57;102483.91;;;6.25;82.22
39949;BME280;29070;48.102;-1.652;2023-12-20T04:21:57;102485.53;;;6.26;82.40
39949;BME280;29070;48.102;-1.652;2023-12-20T04:26:57;102485.28;;;6.29;82.40
39949;BME280;29070;48.102;-1.652;2023-12-20T04:31:58;102484.13;;;6.33;82.52
39949;BME280;29070;48.102;-1.652;2023-12-20T04:36:58;102477.22;;;6.32;82.30
39949;BME280;29070;48.102;-1.652;2023-12-20T04:41:58;102487.78;;;6.30;82.38
39949;BME280;29070;48.102;-1.652;2023-12-20T04:46:59;102489.44;;;6.32;82.34
39949;BME280;29070;48.102;-1.652;2023-12-20T04:52:00;102488.88;;;6.28;82.30
39949;BME280;29070;48.102;-1.652;2023-12-20T04:57:00;102497.41;;;6.30;82.51
39949;BME280;29070;48.102;-1.652;2023-12-20T05:02:00;102504.25;;;6.31;82.47
39949;BME280;29070;48.102;-1.652;2023-12-20T05:07:01;102506.63;;;6.34;82.74
39949;BME280;29070;48.102;-1.652;2023-12-20T05:12:01;102494.75;;;6.41;82.67
39949;BME280;29070;48.102;-1.652;2023-12-20T05:17:01;102498.41;;;6.50;83.19
39949;BME280;29070;48.102;-1.652;2023-12-20T05:22:03;102498.16;;;6.53;83.15
39949;BME280;29070;48.102;-1.652;2023-12-20T05:27:04;102501.94;;;6.49;82.83
39949;BME280;29070;48.102;-1.652;2023-12-20T05:32:04;102497.81;;;6.46;82.86
39949;BME280;29070;48.102;-1.652;2023-12-20T05:37:05;102510.84;;;6.46;83.08
39949;BME280;29070;48.102;-1.652;2023-12-20T05:42:05;102516.06;;;6.46;83.03
39949;BME280;29070;48.102;-1.652;2023-12-20T05:47:05;102518.09;;;6.43;82.61
39949;BME280;29070;48.102;-1.652;2023-12-20T05:52:06;102513.97;;;6.40;82.80
39949;BME280;29070;48.102;-1.652;2023-12-20T05:57:06;102511.72;;;6.36;82.65
39949;BME280;29070;48.102;-1.652;2023-12-20T06:02:06;102516.22;;;6.34;82.76
39949;BME280;29070;48.102;-1.652;2023-12-20T06:07:07;102519.91;;;6.31;82.69
39949;BME280;29070;48.102;-1.652;2023-12-20T06:12:07;102524.88;;;6.34;83.00
39949;BME280;29070;48.102;-1.652;2023-12-20T06:17:11;102532.09;;;6.42;83.18
39949;BME280;29070;48.102;-1.652;2023-12-20T06:22:11;102548.91;;;6.49;83.29
39949;BME280;29070;48.102;-1.652;2023-12-20T06:27:11;102538.00;;;6.55;83.35
39949;BME280;29070;48.102;-1.652;2023-12-20T06:32:12;102537.59;;;6.60;83.24
39949;BME280;29070;48.102;-1.652;2023-12-20T06:37:12;102557.19;;;6.65;83.23
39949;BME280;29070;48.102;-1.652;2023-12-20T06:42:13;102558.69;;;6.68;83.65
39949;BME280;29070;48.102;-1.652;2023-12-20T06:47:13;102573.53;;;6.67;83.27
39949;BME280;29070;48.102;-1.652;2023-12-20T06:52:14;102578.88;;;6.66;83.77
39949;BME280;29070;48.102;-1.652;2023-12-20T06:57:14;102580.66;;;6.65;83.68
39949;BME280;29070;48.102;-1.652;2023-12-20T07:02:14;102579.09;;;6.63;83.23
39949;BME280;29070;48.102;-1.652;2023-12-20T07:07:15;102576.50;;;6.63;83.47
39949;BME280;29070;48.102;-1.652;2023-12-20T07:12:15;102568.78;;;6.61;83.43
39949;BME280;29070;48.102;-1.652;2023-12-20T07:17:15;102575.09;;;6.59;83.51
39949;BME280;29070;48.102;-1.652;2023-12-20T07:22:16;102586.59;;;6.56;83.81
39949;BME280;29070;48.102;-1.652;2023-12-20T07:27:16;102586.75;;;6.55;83.96
39949;BME280;29070;48.102;-1.652;2023-12-20T07:32:17;102587.69;;;6.54;83.51
39949;BME280;29070;48.102;-1.652;2023-12-20T07:37:17;102579.16;;;6.52;83.45
39949;BME280;29070;48.102;-1.652;2023-12-20T07:42:17;102596.44;;;6.53;83.61
39949;BME280;29070;48.102;-1.652;2023-12-20T07:47:18;102580.78;;;6.53;83.53
39949;BME280;29070;48.102;-1.652;2023-12-20T07:52:23;102569.41;;;6.54;83.79
39949;BME280;29070;48.102;-1.652;2023-12-20T07:57:23;102575.34;;;6.56;83.80
39949;BME280;29070;48.102;-1.652;2023-12-20T08:02:24;102570.81;;;6.58;83.62
39949;BME280;29070;48.102;-1.652;2023-12-20T08:07:24;102569.06;;;6.58;83.87
39949;BME280;29070;48.102;-1.652;2023-12-20T08:12:24;102574.28;;;6.58;83.77
39949;BME280;29070;48.102;-1.652;2023-12-20T08:17:27;102582.94;;;6.59;83.84
39949;BME280;29070;48.102;-1.652;2023-12-20T08:22:28;102585.31;;;6.62;84.11
39949;BME280;29070;48.102;-1.652;2023-12-20T08:27:28;102579.00;;;6.64;83.85
39949;BME280;29070;48.102;-1.652;2023-12-20T08:32:28;102594.28;;;6.69;83.80
39949;BME280;29070;48.102;-1.652;2023-12-20T08:37:29;102595.31;;;6.78;84.00
39949;BME280;29070;48.102;-1.652;2023-12-20T08:42:30;102602.66;;;6.84;84.19
39949;BME280;29070;48.102;-1.652;2023-12-20T08:47:31;102615.47;;;6.87;84.36
39949;BME280;29070;48.102;-1.652;2023-12-20T08:52:31;102607.25;;;6.92;84.01
39949;BME280;29070;48.102;-1.652;2023-12-20T08:57:32;102614.97;;;6.93;84.32
39949;BME280;29070;48.102;-1.652;2023-12-20T09:02:33;102630.75;;;6.92;84.29
39949;BME280;29070;48.102;-1.652;2023-12-20T09:07:36;102617.81;;;6.90;84.22
39949;BME280;29070;48.102;-1.652;2023-12-20T09:12:36;102621.09;;;7.03;84.13
39949;BME280;29070;48.102;-1.652;2023-12-20T09:17:40;102629.72;;;7.15;84.34
39949;BME280;29070;48.102;-1.652;2023-12-20T09:22:41;102626.84;;;7.18;84.03
39949;BME280;29070;48.102;-1.652;2023-12-20T09:27:42;102606.41;;;7.23;83.94
39949;BME280;29070;48.102;-1.652;2023-12-20T09:32:42;102595.44;;;7.30;84.05
39949;BME280;29070;48.102;-1.652;2023-12-20T09:37:42;102583.56;;;7.37;84.28
39949;BME280;29070;48.102;-1.652;2023-12-20T09:47:50;102591.66;;;7.55;84.10
39949;BME280;29070;48.102;-1.652;2023-12-20T09:52:53;102594.88;;;7.68;84.01
39949;BME280;29070;48.102;-1.652;2023-12-20T09:57:53;102587.53;;;7.83;84.43
39949;BME280;29070;48.102;-1.652;2023-12-20T10:02:57;102609.00;;;7.87;84.13
39949;BME280;29070;48.102;-1.652;2023-12-20T10:07:59;102610.78;;;7.86;84.02
39949;BME280;29070;48.102;-1.652;2023-12-20T10:18:03;102617.78;;;8.07;84.08
39949;BME280;29070;48.102;-1.652;2023-12-20T10:23:04;102618.19;;;8.12;84.09
39949;BME280;29070;48.102;-1.652;2023-12-20T10:28:15;102621.00;;;8.30;83.87
39949;BME280;29070;48.102;-1.652;2023-12-20T10:33:26;102612.69;;;8.46;84.13
39949;BME280;29070;48.102;-1.652;2023-12-20T10:38:27;102600.88;;;8.61;84.13
39949;BME280;29070;48.102;-1.652;2023-12-20T10:43:30;102585.06;;;8.72;83.96
39949;BME280;29070;48.102;-1.652;2023-12-20T10:48:31;102587.00;;;8.90;84.23
39949;BME280;29070;48.102;-1.652;2023-12-20T10:53:33;102588.38;;;9.04;84.00
39949;BME280;29070;48.102;-1.652;2023-12-20T10:58:34;102580.91;;;9.19;84.04
39949;BME280;29070;48.102;-1.652;2023-12-20T11:03:36;102572.06;;;9.29;84.10
39949;BME280;29070;48.102;-1.652;2023-12-20T11:08:52;102563.22;;;9.40;84.02
39949;BME280;29070;48.102;-1.652;2023-12-20T11:14:00;102560.47;;;9.51;83.45
39949;BME280;29070;48.102;-1.652;2023-12-20T11:19:05;102551.44;;;9.64;83.43
39949;BME280;29070;48.102;-1.652;2023-12-20T11:24:06;102564.38;;;9.75;83.27
39949;BME280;29070;48.102;-1.652;2023-12-20T11:29:35;102541.84;;;9.82;83.34
39949;BME280;29070;48.102;-1.652;2023-12-20T11:34:36;102556.84;;;9.90;83.01
39949;BME280;29070;48.102;-1.652;2023-12-20T11:39:36;102552.81;;;9.96;83.06
39949;BME280;29070;48.102;-1.652;2023-12-20T11:44:37;102526.84;;;10.02;83.04
39949;BME280;29070;48.102;-1.652;2023-12-20T11:49:37;102527.47;;;10.14;83.12
39949;BME280;29070;48.102;-1.652;2023-12-20T11:54:37;102523.13;;;10.23;83.11
39949;BME280;29070;48.102;-1.652;2023-12-20T11:59:38;102517.03;;;10.32;83.06
39949;BME280;29070;48.102;-1.652;2023-12-20T12:04:41;102508.13;;;10.43;82.94
39949;BME280;29070;48.102;-1.652;2023-12-20T12:09:42;102487.31;;;10.49;82.69
39949;BME280;29070;48.102;-1.652;2023-12-20T12:14:44;102488.53;;;10.73;82.70
39949;BME280;29070;48.102;-1.652;2023-12-20T12:19:44;102479.25;;;10.87;82.28
39949;BME280;29070;48.102;-1.652;2023-12-20T12:24:45;102472.22;;;10.87;81.84
39949;BME280;29070;48.102;-1.652;2023-12-20T12:30:03;102473.91;;;10.97;81.82
39949;BME280;29070;48.102;-1.652;2023-12-20T12:35:04;102462.31;;;11.07;81.58
39949;BME280;29070;48.102;-1.652;2023-12-20T12:40:10;102449.84;;;11.10;81.41
39949;BME280;29070;48.102;-1.652;2023-12-20T12:45:11;102450.50;;;11.12;81.18
39949;BME280;29070;48.102;-1.652;2023-12-20T12:50:12;102440.06;;;11.28;81.15
39949;BME280;29070;48.102;-1.652;2023-12-20T12:55:12;102442.09;;;11.42;80.99
39949;BME280;29070;48.102;-1.652;2023-12-20T13:00:13;102431.00;;;11.57;80.78
39949;BME280;29070;48.102;-1.652;2023-12-20T13:05:13;102434.97;;;11.61;80.71
39949;BME280;29070;48.102;-1.652;2023-12-20T13:10:14;102418.19;;;11.54;80.42
39949;BME280;29070;48.102;-1.652;2023-12-20T13:15:16;102417.16;;;11.47;80.47
39949;BME280;29070;48.102;-1.652;2023-12-20T13:20:17;102415.00;;;11.42;80.40
39949;BME280;29070;48.102;-1.652;2023-12-20T13:25:17;102408.94;;;11.41;80.42
39949;BME280;29070;48.102;-1.652;2023-12-20T13:30:17;102413.03;;;11.44;80.43
39949;BME280;29070;48.102;-1.652;2023-12-20T13:35:18;102392.50;;;11.48;80.47
39949;BME280;29070;48.102;-1.652;2023-12-20T13:40:19;102380.34;;;11.47;80.38
39949;BME280;29070;48.102;-1.652;2023-12-20T13:45:19;102382.28;;;11.44;80.47
39949;BME280;29070;48.102;-1.652;2023-12-20T13:50:20;102364.22;;;11.41;80.32
39949;BME280;29070;48.102;-1.652;2023-12-20T13:55:20;102349.13;;;11.43;80.08
39949;BME280;29070;48.102;-1.652;2023-12-20T14:00:25;102345.81;;;11.41;80.00
39949;BME280;29070;48.102;-1.652;2023-12-20T14:05:25;102331.34;;;11.37;80.07
39949;BME280;29070;48.102;-1.652;2023-12-20T14:10:27;102322.81;;;11.43;80.13
39949;BME280;29070;48.102;-1.652;2023-12-20T14:15:28;102307.56;;;11.47;80.24
39949;BME280;29070;48.102;-1.652;2023-12-20T14:20:28;102296.53;;;11.43;80.11
39949;BME280;29070;48.102;-1.652;2023-12-20T14:25:29;102288.63;;;11.35;80.12
39949;BME280;29070;48.102;-1.652;2023-12-20T14:30:31;102283.03;;;11.38;80.33
39949;BME280;29070;48.102;-1.652;2023-12-20T14:35:32;102287.97;;;11.33;80.29
39949;BME280;29070;48.102;-1.652;2023-12-20T14:40:32;102283.19;;;11.29;80.30
39949;BME280;29070;48.102;-1.652;2023-12-20T14:45:33;102282.34;;;11.28;80.30
39949;BME280;29070;48.102;-1.652;2023-12-20T14:50:33;102289.28;;;11.29;80.24
39949;BME280;29070;48.102;-1.652;2023-12-20T14:55:34;102288.47;;;11.29;80.30
39949;BME280;29070;48.102;-1.652;2023-12-20T15:00:35;102278.75;;;11.29;80.21
39949;BME280;29070;48.102;-1.652;2023-12-20T15:05:35;102278.56;;;11.22;80.07
39949;BME280;29070;48.102;-1.652;2023-12-20T15:10:36;102285.66;;;11.22;80.19
39949;BME280;29070;48.102;-1.652;2023-12-20T15:15:36;102274.13;;;11.23;80.22
39949;BME280;29070;48.102;-1.652;2023-12-20T15:20:37;102276.09;;;11.21;80.07
39949;BME280;29070;48.102;-1.652;2023-12-20T15:25:38;102266.44;;;11.21;80.21
39949;BME280;29070;48.102;-1.652;2023-12-20T15:30:38;102250.31;;;11.16;79.82
39949;BME280;29070;48.102;-1.652;2023-12-20T15:35:38;102246.84;;;11.16;80.29
39949;BME280;29070;48.102;-1.652;2023-12-20T15:40:39;102241.94;;;11.13;80.20
39949;BME280;29070;48.102;-1.652;2023-12-20T15:45:39;102249.16;;;11.11;80.33
39949;BME280;29070;48.102;-1.652;2023-12-20T15:50:40;102258.00;;;11.10;80.47
39949;BME280;29070;48.102;-1.652;2023-12-20T15:55:40;102234.88;;;11.13;80.47
39949;BME280;29070;48.102;-1.652;2023-12-20T16:00:41;102224.81;;;11.09;80.50
39949;BME280;29070;48.102;-1.652;2023-12-20T16:05:42;102221.22;;;11.10;80.44
39949;BME280;29070;48.102;-1.652;2023-12-20T16:10:42;102222.88;;;11.11;80.62
39949;BME280;29070;48.102;-1.652;2023-12-20T16:15:42;102268.69;;;11.08;80.64
39949;BME280;29070;48.102;-1.652;2023-12-20T16:20:43;102243.72;;;11.04;80.74
39949;BME280;29070;48.102;-1.652;2023-12-20T16:25:43;102241.41;;;11.01;80.74
39949;BME280;29070;48.102;-1.652;2023-12-20T16:30:43;102240.59;;;11.00;80.83
39949;BME280;29070;48.102;-1.652;2023-12-20T16:35:44;102229.41;;;10.98;80.99
39949;BME280;29070;48.102;-1.652;2023-12-20T16:40:44;102239.09;;;10.98;81.09
39949;BME280;29070;48.102;-1.652;2023-12-20T16:45:45;102237.28;;;10.98;81.22
39949;BME280;29070;48.102;-1.652;2023-12-20T16:50:45;102234.97;;;10.95;81.10
39949;BME280;29070;48.102;-1.652;2023-12-20T16:55:46;102215.28;;;10.91;81.17
39949;BME280;29070;48.102;-1.652;2023-12-20T17:00:46;102211.31;;;10.87;81.35
39949;BME280;29070;48.102;-1.652;2023-12-20T17:05:47;102210.97;;;10.82;81.20
39949;BME280;29070;48.102;-1.652;2023-12-20T17:10:47;102211.97;;;10.81;81.56
39949;BME280;29070;48.102;-1.652;2023-12-20T17:15:48;102208.50;;;10.80;81.59
39949;BME280;29070;48.102;-1.652;2023-12-20T17:20:48;102208.66;;;10.79;81.64
39949;BME280;29070;48.102;-1.652;2023-12-20T17:25:48;102218.84;;;10.82;81.73
39949;BME280;29070;48.102;-1.652;2023-12-20T17:30:49;102211.47;;;10.85;81.88
39949;BME280;29070;48.102;-1.652;2023-12-20T17:35:49;102212.31;;;10.86;82.03
39949;BME280;29070;48.102;-1.652;2023-12-20T17:40:49;102208.03;;;10.85;82.14
39949;BME280;29070;48.102;-1.652;2023-12-20T17:45:50;102214.28;;;10.84;82.26
39949;BME280;29070;48.102;-1.652;2023-12-20T17:50:50;102219.84;;;10.81;82.30
39949;BME280;29070;48.102;-1.652;2023-12-20T17:55:50;102221.66;;;10.80;82.47
39949;BME280;29070;48.102;-1.652;2023-12-20T18:00:51;102222.78;;;10.78;82.44
39949;BME280;29070;48.102;-1.652;2023-12-20T18:05:51;102220.44;;;10.75;82.60
39949;BME280;29070;48.102;-1.652;2023-12-20T18:10:52;102238.19;;;10.73;82.67
39949;BME280;29070;48.102;-1.652;2023-12-20T18:15:52;102232.94;;;10.73;82.71
39949;BME280;29070;48.102;-1.652;2023-12-20T18:20:52;102222.06;;;10.67;82.89
39949;BME280;29070;48.102;-1.652;2023-12-20T18:25:54;102219.44;;;10.59;82.97
39949;BME280;29070;48.102;-1.652;2023-12-20T18:30:55;102200.69;;;10.54;82.78
39949;BME280;29070;48.102;-1.652;2023-12-20T18:35:55;102201.00;;;10.51;83.04
39949;BME280;29070;48.102;-1.652;2023-12-20T18:40:56;102183.63;;;10.50;82.76
39949;BME280;29070;48.102;-1.652;2023-12-20T18:45:56;102195.75;;;10.51;82.96
39949;BME280;29070;48.102;-1.652;2023-12-20T18:50:57;102209.88;;;10.50;82.98
39949;BME280;29070;48.102;-1.652;2023-12-20T18:55:57;102204.63;;;10.50;82.99
39949;BME280;29070;48.102;-1.652;2023-12-20T19:00:57;102200.50;;;10.47;82.86
39949;BME280;29070;48.102;-1.652;2023-12-20T19:06:00;102198.53;;;10.49;83.05
39949;BME280;29070;48.102;-1.652;2023-12-20T19:11:03;102195.44;;;10.54;83.18
39949;BME280;29070;48.102;-1.652;2023-12-20T19:16:03;102188.38;;;10.55;83.24
39949;BME280;29070;48.102;-1.652;2023-12-20T19:21:04;102180.50;;;10.55;83.24
39949;BME280;29070;48.102;-1.652;2023-12-20T19:26:11;102182.78;;;10.49;83.37
39949;BME280;29070;48.102;-1.652;2023-12-20T19:31:12;102184.91;;;10.46;83.36
39949;BME280;29070;48.102;-1.652;2023-12-20T19:36:13;102174.38;;;10.38;83.47
39949;BME280;29070;48.102;-1.652;2023-12-20T19:41:13;102183.53;;;10.34;83.63
39949;BME280;29070;48.102;-1.652;2023-12-20T19:46:14;102195.19;;;10.31;83.49
39949;BME280;29070;48.102;-1.652;2023-12-20T19:51:14;102189.53;;;10.26;83.47
39949;BME280;29070;48.102;-1.652;2023-12-20T19:56:15;102180.50;;;10.20;83.64
39949;BME280;29070;48.102;-1.652;2023-12-20T20:01:15;102187.56;;;10.20;83.68
39949;BME280;29070;48.102;-1.652;2023-12-20T20:06:15;102189.34;;;10.19;83.70
39949;BME280;29070;48.102;-1.652;2023-12-20T20:11:16;102185.09;;;10.18;83.67
39949;BME280;29070;48.102;-1.652;2023-12-20T20:16:16;102174.59;;;10.18;83.76
39949;BME280;29070;48.102;-1.652;2023-12-20T20:21:16;102159.16;;;10.15;83.78
39949;BME280;29070;48.102;-1.652;2023-12-20T20:26:17;102152.28;;;10.14;83.83
39949;BME280;29070;48.102;-1.652;2023-12-20T20:31:17;102136.19;;;10.09;83.96
39949;BME280;29070;48.102;-1.652;2023-12-20T20:36:17;102125.19;;;10.14;84.03
39949;BME280;29070;48.102;-1.652;2023-12-20T20:41:18;102139.59;;;10.09;84.17
39949;BME280;29070;48.102;-1.652;2023-12-20T20:46:18;102134.06;;;10.13;84.19
39949;BME280;29070;48.102;-1.652;2023-12-20T20:51:20;102139.97;;;10.15;84.35
39949;BME280;29070;48.102;-1.652;2023-12-20T20:56:20;102120.09;;;10.12;84.33
39949;BME280;29070;48.102;-1.652;2023-12-20T21:01:21;102100.41;;;10.08;84.29
39949;BME280;29070;48.102;-1.652;2023-12-20T21:06:21;102107.81;;;10.13;84.45
39949;BME280;29070;48.102;-1.652;2023-12-20T21:11:22;102103.69;;;10.10;84.45
39949;BME280;29070;48.102;-1.652;2023-12-20T21:16:22;102074.19;;;10.08;84.43
39949;BME280;29070;48.102;-1.652;2023-12-20T21:21:24;102062.69;;;10.01;84.36
39949;BME280;29070;48.102;-1.652;2023-12-20T21:26:24;102063.50;;;10.01;84.46
39949;BME280;29070;48.102;-1.652;2023-12-20T21:31:24;102065.00;;;10.04;84.70
39949;BME280;29070;48.102;-1.652;2023-12-20T21:36:25;102074.50;;;10.05;84.57
39949;BME280;29070;48.102;-1.652;2023-12-20T21:41:25;102063.19;;;10.04;84.59
39949;BME280;29070;48.102;-1.652;2023-12-20T21:46:25;102039.72;;;10.03;84.54
39949;BME280;29070;48.102;-1.652;2023-12-20T21:51:26;102036.13;;;10.04;84.55
39949;BME280;29070;48.102;-1.652;2023-12-20T21:56:26;102040.72;;;10.02;84.48
39949;BME280;29070;48.102;-1.652;2023-12-20T22:01:27;102045.31;;;10.00;84.49
39949;BME280;29070;48.102;-1.652;2023-12-20T22:06:27;102047.75;;;10.01;84.42
39949;BME280;29070;48.102;-1.652;2023-12-20T22:11:27;102050.06;;;10.04;84.74
39949;BME280;29070;48.102;-1.652;2023-12-20T22:16:28;102046.63;;;10.04;84.34
39949;BME280;29070;48.102;-1.652;2023-12-20T22:21:29;102055.81;;;10.08;84.37
39949;BME280;29070;48.102;-1.652;2023-12-20T22:26:29;102035.81;;;10.07;84.28
39949;BME280;29070;48.102;-1.652;2023-12-20T22:31:30;102035.81;;;10.07;84.38
39949;BME280;29070;48.102;-1.652;2023-12-20T22:36:31;102041.06;;;10.07;84.27
39949;BME280;29070;48.102;-1.652;2023-12-20T22:41:31;102019.25;;;10.06;84.51
39949;BME280;29070;48.102;-1.652;2023-12-20T22:46:32;102008.75;;;10.06;84.35
39949;BME280;29070;48.102;-1.652;2023-12-20T22:51:33;102009.75;;;10.05;84.15
39949;BME280;29070;48.102;-1.652;2023-12-20T22:56:34;101997.44;;;10.06;84.32
39949;BME280;29070;48.102;-1.652;2023-12-20T23:01:34;101991.38;;;10.05;84.36
39949;BME280;29070;48.102;-1.652;2023-12-20T23:06:34;101997.94;;;10.09;84.21
39949;BME280;29070;48.102;-1.652;2023-12-20T23:11:35;101991.53;;;10.12;84.26
39949;BME280;29070;48.102;-1.652;2023-12-20T23:16:36;101977.78;;;10.10;84.25
39949;BME280;29070;48.102;-1.652;2023-12-20T23:21:37;101962.88;;;10.10;84.21
39949;BME280;29070;48.102;-1.652;2023-12-20T23:26:38;101949.91;;;10.09;84.17
39949;BME280;29070;48.102;-1.652;2023-12-20T23:31:38;101960.41;;;10.09;84.14
39949;BME280;29070;48.102;-1.652;2023-12-20T23:36:38;101964.66;;;10.10;84.04
39949;BME280;29070;48.102;-1.652;2023-12-20T23:41:39;101965.31;;;10.12;84.17
39949;BME280;29070;48.102;-1.652;2023-12-20T23:46:39;101961.72;;;10.13;84.15
39949;BME280;29070;48.102;-1.652;2023-12-20T23:51:39;101961.72;;;10.13;84.03
39949;BME280;29070;48.102;-1.652;2023-12-20T23:56:41;101959.75;;;10.15;84.11
